createdAt,value
2022-11-28T00:02:04.506Z,10.23
2022-11-28T00:04:34.495Z,9.38
2022-11-28T00:07:01.584Z,9.57
2022-11-28T00:09:28.349Z,10.40
2022-11-28T00:11:55.136Z,8.25
2022-11-28T00:14:22.235Z,8.65
2022-11-28T00:16:50.517Z,8.82
2022-11-28T00:19:17.428Z,8.73
2022-11-28T00:21:44.154Z,8.50
2022-11-28T00:24:10.925Z,9.23
2022-11-28T00:26:44.518Z,7.75
2022-11-28T00:29:18.341Z,8.82
2022-11-28T00:31:45.050Z,8.20
2022-11-28T00:34:15.877Z,7.40
2022-11-28T00:36:47.707Z,8.55
2022-11-28T00:39:16.841Z,8.40
2022-11-28T00:41:44.967Z,9.00
2022-11-28T00:44:13.211Z,7.47
2022-11-28T00:46:40.717Z,8.60
2022-11-28T00:49:08.727Z,9.20
2022-11-28T00:51:36.019Z,7.88
2022-11-28T00:54:07.044Z,8.25
2022-11-28T00:56:39.112Z,8.27
2022-11-28T00:59:10.169Z,7.68
2022-11-28T01:01:44.064Z,8.15
2022-11-28T01:04:17.386Z,7.15
2022-11-28T01:06:50.061Z,7.55
2022-11-28T01:09:24.459Z,8.25
2022-11-28T01:11:54.066Z,7.68
2022-11-28T01:14:25.431Z,8.45
2022-11-28T01:16:52.886Z,8.15
2022-11-28T01:19:21.288Z,8.45
2022-11-28T01:21:48.613Z,7.75
2022-11-28T01:24:16.174Z,7.72
2022-11-28T01:26:43.475Z,7.88
2022-11-28T01:29:12.111Z,7.45
2022-11-28T01:31:39.910Z,7.88
2022-11-28T01:34:09.417Z,8.90
2022-11-28T01:36:36.882Z,8.88
2022-11-28T01:39:04.103Z,8.60
2022-11-28T01:41:30.787Z,7.95
2022-11-28T01:44:12.936Z,9.07
2022-11-28T01:46:40.312Z,8.18
2022-11-28T01:49:24.457Z,7.95
2022-11-28T01:52:00.988Z,7.97
2022-11-28T01:54:31.733Z,8.23
2022-11-28T01:57:08.058Z,7.68
2022-11-28T01:59:49.366Z,9.23
2022-11-28T02:02:38.931Z,7.80
2022-11-28T02:05:07.177Z,8.52
2022-11-28T02:07:37.058Z,7.60
2022-11-28T02:10:12.087Z,12.05
2022-11-28T02:13:23.001Z,6.97
2022-11-28T02:16:17.896Z,8.15
2022-11-28T02:22:09.535Z,8.00
2022-11-28T02:28:06.207Z,7.72
2022-11-28T02:31:09.946Z,8.55
2022-11-28T02:34:01.219Z,8.38
2022-11-28T02:36:38.684Z,7.70
2022-11-28T02:39:31.670Z,7.85
2022-11-28T02:42:18.213Z,8.85
2022-11-28T02:45:00.852Z,8.27
2022-11-28T02:47:42.493Z,7.82
2022-11-28T02:50:32.681Z,7.93
2022-11-28T02:53:14.479Z,10.35
2022-11-28T02:55:44.081Z,8.52
2022-11-28T02:58:14.933Z,7.47
2022-11-28T03:00:46.392Z,8.73
2022-11-28T03:03:56.063Z,8.43
2022-11-28T03:07:11.744Z,7.10
2022-11-28T03:13:17.379Z,7.30
2022-11-28T03:16:09.135Z,8.23
2022-11-28T03:19:00.359Z,7.90
2022-11-28T03:21:55.307Z,9.82
2022-11-28T03:27:23.712Z,9.00
2022-11-28T03:30:01.609Z,8.40
2022-11-28T03:32:39.300Z,8.80
2022-11-28T03:35:34.518Z,8.45
2022-11-28T03:38:13.175Z,7.78
2022-11-28T03:40:50.140Z,13.10
2022-11-28T03:43:39.034Z,9.50
2022-11-28T03:46:18.123Z,8.48
2022-11-28T03:48:53.700Z,8.68
2022-11-28T03:51:46.227Z,8.75
2022-11-28T03:54:49.297Z,12.25
2022-11-28T03:57:54.852Z,8.55
2022-11-28T04:00:22.309Z,11.68
2022-11-28T04:03:10.246Z,9.23
2022-11-28T04:05:57.962Z,8.20
2022-11-28T04:08:41.065Z,10.75
2022-11-28T04:11:20.998Z,8.57
2022-11-28T04:14:26.400Z,8.93
2022-11-28T04:17:27.298Z,7.90
2022-11-28T04:20:44.622Z,7.63
2022-11-28T04:23:18.089Z,8.35
2022-11-28T04:26:03.388Z,8.00
2022-11-28T04:28:37.461Z,8.00
2022-11-28T04:31:08.614Z,7.72
2022-11-28T04:33:48.186Z,8.48
2022-11-28T04:36:22.838Z,7.72
2022-11-28T04:38:56.657Z,7.47
2022-11-28T04:41:54.363Z,7.20
2022-11-28T04:44:45.454Z,8.18
2022-11-28T04:47:13.242Z,7.95
2022-11-28T04:49:40.491Z,8.77
2022-11-28T04:52:16.747Z,9.52
2022-11-28T04:55:22.437Z,7.38
2022-11-28T04:58:09.385Z,7.95
2022-11-28T05:00:39.266Z,7.68
2022-11-28T05:03:10.909Z,14.65
2022-11-28T05:05:54.220Z,8.20
2022-11-28T05:08:21.792Z,7.90
2022-11-28T05:10:48.744Z,7.10
2022-11-28T05:13:18.781Z,9.80
2022-11-28T05:15:45.534Z,8.85
2022-11-28T05:18:15.504Z,7.55
2022-11-28T05:20:43.925Z,8.35
2022-11-28T05:23:10.997Z,8.88
2022-11-28T05:25:40.030Z,8.30
2022-11-28T05:28:12.388Z,8.43
2022-11-28T05:30:39.079Z,7.90
2022-11-28T05:33:05.695Z,9.73
2022-11-28T05:35:32.454Z,8.05
2022-11-28T05:37:59.092Z,9.80
2022-11-28T05:40:25.756Z,8.55
2022-11-28T05:42:52.468Z,8.68
2022-11-28T05:48:06.269Z,9.65
2022-11-28T05:58:36.249Z,9.82
2022-11-28T06:01:29.863Z,9.80
2022-11-28T06:04:01.042Z,10.35
2022-11-28T06:25:18.706Z,10.15
2022-11-28T06:30:26.368Z,11.73
2022-11-28T06:41:00.833Z,11.30
2022-11-28T06:43:28.336Z,10.40
2022-11-28T07:32:00.210Z,11.32
2022-11-28T07:34:26.885Z,10.98
2022-11-28T07:44:56.166Z,11.85
2022-11-28T08:03:35.027Z,12.13
2022-11-28T08:06:03.641Z,12.45
2022-11-28T08:11:12.299Z,13.52
2022-11-28T08:13:40.137Z,11.70
2022-11-28T08:16:13.500Z,11.32
2022-11-28T08:18:40.701Z,12.50
2022-11-28T08:21:16.226Z,12.18
2022-11-28T08:23:46.676Z,12.02
2022-11-28T08:26:17.197Z,11.40
2022-11-28T08:28:45.111Z,12.70
2022-11-28T08:31:19.753Z,12.57
2022-11-28T08:33:50.182Z,11.35
2022-11-28T08:36:20.762Z,12.30
2022-11-28T09:13:44.856Z,11.35
2022-11-28T09:18:54.879Z,11.27
2022-11-28T09:21:21.972Z,13.73
2022-11-28T09:34:35.014Z,11.77
2022-11-28T09:37:04.817Z,10.40
2022-11-28T09:39:44.035Z,12.07
2022-11-28T09:51:52.336Z,10.20
2022-11-28T09:54:58.619Z,10.50
2022-11-28T09:57:50.187Z,10.88
2022-11-28T10:04:02.138Z,10.63
2022-11-28T10:31:36.624Z,10.18
2022-11-28T10:34:45.807Z,11.60
2022-11-28T11:01:08.387Z,10.30
2022-11-28T11:03:39.170Z,14.88
2022-11-28T11:06:06.669Z,9.68
2022-11-28T11:08:40.645Z,10.32
2022-11-28T11:17:37.693Z,8.85
2022-11-28T11:20:40.559Z,9.47
2022-11-28T11:23:23.058Z,9.48
2022-11-28T11:31:44.051Z,10.32
2022-11-28T12:19:25.793Z,9.48
2022-11-28T12:22:15.642Z,9.65
2022-11-28T12:25:17.045Z,9.77
2022-11-28T12:28:11.718Z,8.98
2022-11-28T12:31:22.952Z,10.15
2022-11-28T12:45:18.461Z,9.10
2022-11-28T12:48:35.375Z,8.13
2022-11-28T12:51:48.068Z,8.23
2022-11-28T12:55:33.611Z,9.75
2022-11-28T13:39:25.819Z,9.32
2022-11-28T13:42:59.583Z,9.23
2022-11-28T14:25:33.492Z,11.77
2022-11-28T14:43:49.669Z,10.30
2022-11-28T14:46:16.279Z,9.93
2022-11-28T14:49:17.949Z,11.80
2022-11-28T15:11:03.529Z,12.30
2022-11-28T15:14:12.784Z,11.02
2022-11-28T15:16:50.476Z,12.35
2022-11-28T15:19:25.926Z,11.75
2022-11-28T15:21:57.502Z,10.55
2022-11-28T15:24:34.393Z,12.10
2022-11-28T15:27:07.081Z,11.35
2022-11-28T15:29:37.284Z,11.88
2022-11-28T15:32:05.670Z,11.07
2022-11-28T15:34:40.616Z,12.55
2022-11-28T15:37:19.315Z,12.15
2022-11-28T15:39:52.863Z,10.65
2022-11-28T15:42:38.847Z,11.57
2022-11-28T15:45:27.846Z,12.57
2022-11-28T15:47:57.824Z,12.77
2022-11-28T15:50:30.968Z,11.65
2022-11-28T15:53:19.498Z,11.90
2022-11-28T15:55:48.818Z,13.35
2022-11-28T15:58:31.390Z,13.02
2022-11-28T16:01:28.709Z,12.20
2022-11-28T16:04:18.974Z,11.77
2022-11-28T16:06:59.339Z,14.07
2022-11-28T16:09:35.394Z,13.80
2022-11-28T16:12:08.622Z,14.23
2022-11-28T16:14:44.985Z,14.40
2022-11-28T16:17:34.656Z,13.73
2022-11-28T16:20:04.234Z,13.73
2022-11-28T16:22:37.097Z,14.52
2022-11-28T16:25:24.186Z,14.23
2022-11-28T16:27:57.304Z,14.30
2022-11-28T16:30:42.361Z,14.27
2022-11-28T16:33:45.624Z,13.48
2022-11-28T16:36:31.009Z,15.13
2022-11-28T16:39:17.588Z,15.45
2022-11-28T16:42:07.079Z,14.82
2022-11-28T16:44:34.441Z,16.52
2022-11-28T16:47:02.062Z,14.77
2022-11-28T16:50:04.785Z,18.48
2022-11-28T16:52:54.018Z,15.77
2022-11-28T16:55:33.094Z,16.67
2022-11-28T16:58:21.195Z,17.05
2022-11-28T17:01:01.300Z,14.45
2022-11-28T17:03:53.516Z,16.13
2022-11-28T17:06:39.101Z,15.35
2022-11-28T17:09:12.674Z,17.08
2022-11-28T17:11:56.229Z,16.95
2022-11-28T17:14:23.170Z,17.88
2022-11-28T17:16:49.936Z,18.55
2022-11-28T17:19:17.618Z,18.02
2022-11-28T17:38:05.943Z,15.95
2022-11-28T17:40:36.716Z,20.33
2022-11-28T17:51:10.792Z,16.95
2022-11-28T17:53:37.700Z,20.40
2022-11-28T17:56:04.689Z,22.35
2022-11-28T17:58:31.490Z,27.20
2022-11-28T18:39:11.577Z,24.00
2022-11-28T18:41:39.828Z,22.00
2022-11-28T18:49:32.027Z,21.98
2022-11-28T19:00:09.680Z,22.42
2022-11-28T19:02:36.778Z,23.02
2022-11-28T19:07:44.937Z,27.83
2022-11-28T19:10:14.302Z,25.38
2022-11-28T19:12:41.151Z,27.25
2022-11-28T19:15:11.717Z,35.83
2022-11-28T19:17:38.524Z,27.55
2022-11-28T19:20:08.760Z,26.85
2022-11-28T19:30:38.637Z,26.70
2022-11-28T19:41:17.047Z,27.27
2022-11-28T19:46:29.167Z,26.70
2022-11-28T19:48:59.076Z,25.58
2022-11-28T19:51:25.887Z,27.92
2022-11-28T19:53:52.790Z,26.25
2022-11-28T20:18:03.251Z,29.02
2022-11-28T20:20:30.601Z,34.25
2022-11-28T20:41:50.267Z,27.35
2022-11-28T20:44:19.294Z,29.67
2022-11-28T20:46:46.705Z,27.08
2022-11-28T20:49:17.508Z,41.55
2022-11-28T20:51:44.973Z,28.42
2022-11-28T20:54:13.825Z,55.00
2022-11-28T20:57:12.883Z,31.40
2022-11-28T20:59:28.585Z,28.88
2022-11-28T21:01:55.277Z,27.98
2022-11-28T21:04:22.167Z,28.05
2022-11-28T21:06:49.326Z,35.28
2022-11-28T21:09:20.149Z,26.67
2022-11-28T21:11:58.044Z,62.60
2022-11-28T21:14:28.334Z,30.85
2022-11-28T21:16:56.137Z,30.95
2022-11-28T21:19:23.014Z,39.58
2022-11-28T21:21:49.839Z,30.17
2022-11-28T21:24:16.543Z,29.55
2022-11-28T21:26:48.109Z,34.08
2022-11-28T21:29:22.967Z,41.10
2022-11-28T21:31:49.846Z,29.95
2022-11-28T21:34:18.285Z,28.13
2022-11-28T21:36:45.856Z,36.33
2022-11-28T21:39:19.676Z,37.90
2022-11-28T21:41:46.810Z,29.33
2022-11-28T21:44:13.845Z,38.58
2022-11-28T21:46:40.524Z,32.97
2022-11-28T21:49:07.594Z,32.97
2022-11-28T21:51:37.113Z,29.88
2022-11-28T21:54:04.268Z,32.22
2022-11-28T21:56:30.903Z,29.25
2022-11-28T21:58:57.556Z,30.88
2022-11-28T22:01:24.260Z,30.70
2022-11-28T22:03:51.032Z,32.70
2022-11-28T22:06:25.636Z,33.80
2022-11-28T22:08:57.333Z,34.70
2022-11-28T22:11:24.486Z,33.75
2022-11-28T22:13:52.769Z,30.27
2022-11-28T22:16:42.267Z,31.10
2022-11-28T22:19:09.234Z,29.40
2022-11-28T22:21:55.331Z,33.22
2022-11-28T22:24:23.453Z,32.20
2022-11-28T22:26:50.248Z,31.67
2022-11-28T22:29:17.091Z,30.65
2022-11-28T22:31:44.027Z,32.65
2022-11-28T22:34:13.334Z,30.83
2022-11-28T22:36:40.029Z,31.92
2022-11-28T22:39:06.741Z,31.10
2022-11-28T22:41:33.959Z,34.00
2022-11-28T22:44:02.397Z,32.40
2022-11-28T22:46:30.761Z,34.33
2022-11-28T22:49:01.344Z,31.00
2022-11-28T22:51:30.690Z,33.03
2022-11-28T22:54:01.295Z,31.05
2022-11-28T22:56:32.034Z,32.13
2022-11-28T22:58:59.945Z,33.50
2022-11-28T23:01:35.956Z,30.40
2022-11-28T23:04:03.206Z,32.35
2022-11-28T23:06:34.745Z,35.10
2022-11-28T23:09:08.127Z,32.22
2022-11-28T23:11:38.733Z,33.27
2022-11-28T23:14:06.389Z,32.40
2022-11-28T23:16:40.837Z,31.92
2022-11-28T23:19:16.461Z,35.17
2022-11-28T23:21:48.513Z,35.63
2022-11-28T23:24:20.786Z,30.90
2022-11-28T23:26:49.948Z,33.00
2022-11-28T23:29:17.643Z,31.25
2022-11-28T23:31:47.081Z,31.30
2022-11-28T23:34:15.014Z,32.20
2022-11-28T23:36:46.664Z,33.88
2022-11-28T23:39:18.914Z,31.95
2022-11-28T23:41:46.946Z,32.38
2022-11-28T23:44:16.815Z,35.80
2022-11-28T23:46:44.791Z,31.13
2022-11-28T23:49:13.081Z,34.25
2022-11-28T23:51:41.339Z,32.45
2022-11-28T23:54:12.983Z,32.78
2022-11-28T23:56:42.403Z,33.40
2022-11-28T23:59:12.242Z,33.88
